createdAt,value
2018-08-20T00:00:59.667Z,12.20
2018-08-20T00:03:28.731Z,12.07
2018-08-20T00:05:57.789Z,12.90
2018-08-20T00:08:26.857Z,11.97
2018-08-20T00:10:55.912Z,11.27
2018-08-20T00:13:25.941Z,12.03
2018-08-20T00:15:55.031Z,12.00
2018-08-20T00:18:24.081Z,11.43
2018-08-20T00:20:55.063Z,12.13
2018-08-20T00:23:25.012Z,11.67
2018-08-20T00:25:54.074Z,12.17
2018-08-20T00:30:59.409Z,13.53
2018-08-20T00:33:28.473Z,12.03
2018-08-20T00:38:33.321Z,14.10
2018-08-20T00:41:02.409Z,13.10
2018-08-20T00:43:31.467Z,11.90
2018-08-20T00:46:01.595Z,12.80
2018-08-20T00:51:06.542Z,13.20
2018-08-20T00:53:35.603Z,12.97
2018-08-20T00:58:41.445Z,13.60
2018-08-20T01:01:10.503Z,12.60
2018-08-20T01:03:39.550Z,13.03
2018-08-20T01:06:08.618Z,13.75
2018-08-20T01:08:37.674Z,12.97
2018-08-20T01:13:42.436Z,13.80
2018-08-20T01:16:11.502Z,11.63
2018-08-20T01:18:40.625Z,12.40
2018-08-20T01:21:09.715Z,13.20
2018-08-20T01:23:38.795Z,13.63
2018-08-20T01:26:07.845Z,12.50
2018-08-20T01:28:36.971Z,12.47
2018-08-20T01:31:07.012Z,14.40
2018-08-20T01:33:36.074Z,12.83
2018-08-20T01:36:05.186Z,12.70
2018-08-20T01:38:34.243Z,14.23
2018-08-20T01:41:03.305Z,13.53
2018-08-20T01:43:32.482Z,13.10
2018-08-20T01:46:01.529Z,12.77
2018-08-20T01:48:30.699Z,15.40
2018-08-20T01:53:35.521Z,14.55
2018-08-20T01:56:04.591Z,14.77
2018-08-20T02:03:45.316Z,14.93
2018-08-20T02:06:14.439Z,13.40
2018-08-20T02:08:43.487Z,13.70
2018-08-20T02:14:08.479Z,15.18
2018-08-20T02:16:38.511Z,14.30
2018-08-20T02:19:07.569Z,13.40
2018-08-20T02:21:36.745Z,13.73
2018-08-20T02:26:42.573Z,16.40
2018-08-20T02:29:12.601Z,14.80
2018-08-20T02:31:42.626Z,15.63
2018-08-20T02:34:11.678Z,16.00
2018-08-20T02:36:40.737Z,14.00
2018-08-20T02:41:45.645Z,16.10
2018-08-20T02:44:16.705Z,15.80
2018-08-20T02:49:21.546Z,15.80
2018-08-20T02:51:51.918Z,16.23
2018-08-20T02:54:20.989Z,15.60
2018-08-20T02:56:50.037Z,15.37
2018-08-20T02:59:19.099Z,16.13
2018-08-20T03:01:49.104Z,16.43
2018-08-20T03:04:18.173Z,15.20
2018-08-20T03:06:47.257Z,16.30
2018-08-20T03:09:16.337Z,15.10
2018-08-20T03:11:45.399Z,15.73
2018-08-20T03:14:14.585Z,14.63
2018-08-20T03:16:43.640Z,15.07
2018-08-20T03:21:48.479Z,15.67
2018-08-20T03:24:17.740Z,15.45
2018-08-20T03:26:46.772Z,15.70
2018-08-20T03:29:15.844Z,16.53
2018-08-20T03:34:20.640Z,16.60
2018-08-20T03:36:49.828Z,15.75
2018-08-20T03:39:18.878Z,14.97
2018-08-20T03:41:47.947Z,15.40
2018-08-20T03:44:17.313Z,15.87
2018-08-20T03:46:46.378Z,16.40
2018-08-20T03:49:15.425Z,14.67
2018-08-20T03:51:45.485Z,16.90
2018-08-20T03:54:15.437Z,17.15
2018-08-20T03:59:20.227Z,16.98
2018-08-20T04:01:50.526Z,17.00
2018-08-20T04:04:20.461Z,15.30
2018-08-20T04:06:49.514Z,16.60
2018-08-20T04:09:18.863Z,15.47
2018-08-20T04:11:47.918Z,16.77
2018-08-20T04:14:17.955Z,16.30
2018-08-20T04:16:47.021Z,15.23
2018-08-20T04:19:16.085Z,16.50
2018-08-20T04:21:45.142Z,17.53
2018-08-20T04:24:14.215Z,16.33
2018-08-20T04:26:43.280Z,15.77
2018-08-20T04:29:12.360Z,18.40
2018-08-20T04:34:17.134Z,16.45
2018-08-20T04:36:46.198Z,18.02
2018-08-20T04:41:50.999Z,17.00
2018-08-20T04:44:20.991Z,15.60
2018-08-20T04:46:50.178Z,15.47
2018-08-20T04:51:56.881Z,16.25
2018-08-20T04:54:25.935Z,15.20
2018-08-20T04:56:54.985Z,14.90
2018-08-20T04:59:24.058Z,16.05
2018-08-20T05:04:28.879Z,16.65
2018-08-20T05:06:59.893Z,16.52
2018-08-20T05:12:04.738Z,15.80
2018-08-20T05:17:09.596Z,15.75
2018-08-20T05:22:15.342Z,15.82
2018-08-20T05:24:44.654Z,15.10
2018-08-20T05:27:13.706Z,13.77
2018-08-20T05:29:42.781Z,14.77
2018-08-20T05:32:11.894Z,16.10
2018-08-20T05:34:40.937Z,14.60
2018-08-20T05:37:10.001Z,15.52
2018-08-20T05:39:40.056Z,13.53
2018-08-20T05:47:20.694Z,15.93
2018-08-20T05:52:25.569Z,15.10
2018-08-20T05:57:30.553Z,15.10
2018-08-20T05:59:59.593Z,12.80
2018-08-20T06:05:05.452Z,14.30
2018-08-20T06:07:34.505Z,12.80
2018-08-20T06:10:03.623Z,12.93
2018-08-20T06:12:32.676Z,11.87
2018-08-20T06:15:01.743Z,13.23
2018-08-20T06:17:31.786Z,12.60
2018-08-20T06:22:36.704Z,12.50
2018-08-20T06:25:05.729Z,11.17
2018-08-20T06:27:34.773Z,9.97
2018-08-20T06:30:03.830Z,11.33
2018-08-20T06:35:08.698Z,11.55
2018-08-20T06:37:37.762Z,10.90
2018-08-20T06:40:07.069Z,8.87
2018-08-20T06:42:36.113Z,9.83
2018-08-20T06:45:05.164Z,9.10
2018-08-20T06:47:34.229Z,9.47
2018-08-20T06:50:03.277Z,9.17
2018-08-20T06:52:32.374Z,8.60
2018-08-20T06:55:01.383Z,8.73
2018-08-20T06:57:30.465Z,8.57
2018-08-20T06:59:59.503Z,8.80
2018-08-20T07:02:28.556Z,8.50
2018-08-20T07:05:01.218Z,8.80
2018-08-20T07:07:30.273Z,8.83
2018-08-20T07:09:59.329Z,7.67
2018-08-20T07:12:28.397Z,7.83
2018-08-20T07:14:57.591Z,7.97
2018-08-20T07:17:26.711Z,7.70
2018-08-20T07:22:31.530Z,7.55
2018-08-20T07:25:01.525Z,6.60
2018-08-20T07:30:06.394Z,6.90
2018-08-20T07:32:35.460Z,6.18
2018-08-20T07:35:04.636Z,6.53
2018-08-20T07:40:09.546Z,6.18
2018-08-20T07:42:40.588Z,6.40
2018-08-20T07:45:10.582Z,5.77
2018-08-20T07:47:39.641Z,5.60
2018-08-20T07:50:08.696Z,5.23
2018-08-20T07:52:38.025Z,5.30
2018-08-20T07:55:07.081Z,5.73
2018-08-20T08:00:11.961Z,5.32
2018-08-20T08:02:41.984Z,5.40
2018-08-20T08:05:11.030Z,5.13
2018-08-20T08:07:40.081Z,5.97
2018-08-20T08:10:11.127Z,5.00
2018-08-20T08:12:40.217Z,4.00
2018-08-20T08:15:09.257Z,5.23
2018-08-20T08:20:14.074Z,5.20
2018-08-20T08:22:44.142Z,4.80
2018-08-20T08:25:13.169Z,5.60
2018-08-20T08:27:42.227Z,5.73
2018-08-20T08:30:11.356Z,5.33
2018-08-20T08:32:40.413Z,5.32
2018-08-20T08:35:09.451Z,5.23
2018-08-20T08:37:38.516Z,6.20
2018-08-20T08:40:11.885Z,5.53
2018-08-20T08:42:44.933Z,5.60
2018-08-20T08:45:16.855Z,6.20
2018-08-20T08:47:46.232Z,5.80
2018-08-20T08:50:15.270Z,5.93
2018-08-20T08:55:20.093Z,5.60
2018-08-20T09:00:25.343Z,6.10
2018-08-20T09:02:54.363Z,5.00
2018-08-20T09:05:23.429Z,5.40
2018-08-20T09:07:52.474Z,4.83
2018-08-20T09:12:58.281Z,4.10
2018-08-20T09:15:27.345Z,4.80
2018-08-20T09:17:56.512Z,4.30
2018-08-20T09:20:25.592Z,4.30
2018-08-20T09:22:54.641Z,4.13
2018-08-20T09:25:23.685Z,4.20
2018-08-20T09:27:52.732Z,4.10
2018-08-20T09:30:21.857Z,4.03
2018-08-20T09:32:51.901Z,3.47
2018-08-20T09:35:20.980Z,3.72
2018-08-20T09:37:50.029Z,4.17
2018-08-20T09:40:19.101Z,4.03
2018-08-20T09:42:48.164Z,4.10
2018-08-20T09:45:17.561Z,4.00
2018-08-20T09:47:46.622Z,4.27
2018-08-20T09:50:15.673Z,4.33
2018-08-20T09:52:44.821Z,3.97
2018-08-20T09:55:13.886Z,4.20
2018-08-20T09:57:42.999Z,3.60
2018-08-20T10:00:12.523Z,3.90
2018-08-20T10:02:41.581Z,4.07
2018-08-20T10:05:10.642Z,4.00
2018-08-20T10:07:40.693Z,4.05
2018-08-20T10:10:09.761Z,3.72
2018-08-20T10:12:38.819Z,3.40
2018-08-20T10:15:07.875Z,4.00
2018-08-20T10:17:36.924Z,4.57
2018-08-20T10:20:05.993Z,4.10
2018-08-20T10:22:35.042Z,4.03
2018-08-20T10:25:04.123Z,4.07
2018-08-20T10:27:33.327Z,3.57
2018-08-20T10:30:03.350Z,3.93
2018-08-20T10:32:32.411Z,3.83
2018-08-20T10:35:01.486Z,4.17
2018-08-20T10:37:30.610Z,3.73
2018-08-20T10:42:35.329Z,4.28
2018-08-20T10:45:04.391Z,4.10
2018-08-20T10:47:33.444Z,4.22
2018-08-20T10:50:02.571Z,4.67
2018-08-20T10:52:31.579Z,3.90
2018-08-20T10:55:00.630Z,3.37
2018-08-20T10:57:29.702Z,4.30
2018-08-20T10:59:58.755Z,4.00
2018-08-20T11:02:27.849Z,4.63
2018-08-20T11:04:56.890Z,4.17
2018-08-20T11:07:25.954Z,4.00
2018-08-20T11:12:30.790Z,4.22
2018-08-20T11:14:59.840Z,3.83
2018-08-20T11:17:28.984Z,3.77
2018-08-20T11:19:58.035Z,4.03
2018-08-20T11:22:27.090Z,4.10
2018-08-20T11:24:56.145Z,3.60
2018-08-20T11:27:27.646Z,4.10
2018-08-20T11:32:32.373Z,4.15
2018-08-20T11:35:01.699Z,4.33
2018-08-20T11:37:30.753Z,3.70
2018-08-20T11:39:59.827Z,4.28
2018-08-20T11:42:28.931Z,4.80
2018-08-20T11:44:57.988Z,4.43
2018-08-20T11:50:06.292Z,4.55
2018-08-20T11:52:35.435Z,4.20
2018-08-20T11:55:04.461Z,4.50
2018-08-20T11:57:33.522Z,4.53
2018-08-20T12:00:02.780Z,4.15
2018-08-20T12:02:31.828Z,4.50
2018-08-20T12:05:00.892Z,4.40
2018-08-20T12:10:05.638Z,4.40
2018-08-20T12:12:34.695Z,4.43
2018-08-20T12:15:03.758Z,4.65
2018-08-20T12:17:32.829Z,4.93
2018-08-20T12:20:01.877Z,4.25
2018-08-20T12:22:31.979Z,4.40
2018-08-20T12:27:36.722Z,4.50
2018-08-20T12:30:05.795Z,5.03
2018-08-20T12:32:34.854Z,4.30
2018-08-20T12:35:03.901Z,4.50
2018-08-20T12:37:33.109Z,4.83
2018-08-20T12:40:02.256Z,4.60
2018-08-20T12:42:31.214Z,4.03
2018-08-20T12:45:00.508Z,4.60
2018-08-20T12:47:29.597Z,4.20
2018-08-20T12:52:34.359Z,5.20
2018-08-20T12:57:39.131Z,5.30
2018-08-20T13:00:08.229Z,5.37
2018-08-20T13:02:37.326Z,5.27
2018-08-20T13:05:06.398Z,5.77
2018-08-20T13:07:35.465Z,5.00
2018-08-20T13:10:04.558Z,5.10
2018-08-20T13:12:33.615Z,5.10
2018-08-20T13:15:02.681Z,5.50
2018-08-20T13:17:31.724Z,4.93
2018-08-20T13:20:00.796Z,5.30
2018-08-20T13:22:29.970Z,5.70
2018-08-20T13:24:59.084Z,5.37
2018-08-20T13:27:28.122Z,5.10
2018-08-20T13:32:33.050Z,4.70
2018-08-20T13:35:02.420Z,5.20
2018-08-20T13:37:31.529Z,4.90
2018-08-20T13:40:00.585Z,5.77
2018-08-20T13:42:29.766Z,5.07
2018-08-20T13:44:58.840Z,5.23
2018-08-20T13:50:03.730Z,5.65
2018-08-20T13:52:32.783Z,6.03
2018-08-20T13:55:07.025Z,5.43
2018-08-20T13:57:36.077Z,5.60
2018-08-20T14:00:05.197Z,5.57
2018-08-20T14:02:34.298Z,5.70
2018-08-20T14:05:03.345Z,5.30
2018-08-20T14:07:33.333Z,5.10
2018-08-20T14:10:03.364Z,5.80
2018-08-20T14:12:32.502Z,5.23
2018-08-20T14:15:01.541Z,4.60
2018-08-20T14:17:30.606Z,5.30
2018-08-20T14:19:59.664Z,5.43
2018-08-20T14:25:04.507Z,4.95
2018-08-20T14:30:12.361Z,5.40
2018-08-20T14:32:41.438Z,5.00
2018-08-20T14:35:10.493Z,5.50
2018-08-20T14:37:39.580Z,5.00
2018-08-20T14:40:09.662Z,5.47
2018-08-20T14:45:14.423Z,5.20
2018-08-20T14:47:43.557Z,4.67
2018-08-20T14:50:12.579Z,5.40
2018-08-20T14:52:41.929Z,5.50
2018-08-20T14:55:10.989Z,5.83
2018-08-20T14:57:43.666Z,5.60
2018-08-20T15:00:12.714Z,5.73
2018-08-20T15:02:41.791Z,4.93
2018-08-20T15:05:10.907Z,5.37
2018-08-20T15:07:39.970Z,5.27
2018-08-20T15:12:44.839Z,5.45
2018-08-20T15:15:13.994Z,4.90
2018-08-20T15:17:42.932Z,5.20
2018-08-20T15:20:12.006Z,5.13
2018-08-20T15:25:16.922Z,4.90
2018-08-20T15:27:45.969Z,5.45
2018-08-20T15:32:50.923Z,5.80
2018-08-20T15:35:19.956Z,5.50
2018-08-20T15:37:49.061Z,5.30
2018-08-20T15:40:18.281Z,5.40
2018-08-20T15:42:47.335Z,5.43
2018-08-20T15:45:16.409Z,5.05
2018-08-20T15:47:45.491Z,5.87
2018-08-20T15:50:14.545Z,4.60
2018-08-20T15:55:20.484Z,5.55
2018-08-20T15:57:49.558Z,5.25
2018-08-20T16:00:18.622Z,5.40
2018-08-20T16:02:47.722Z,4.60
2018-08-20T16:05:17.813Z,5.00
2018-08-20T16:07:46.857Z,4.50
2018-08-20T16:10:15.905Z,5.37
2018-08-20T16:12:44.976Z,5.53
2018-08-20T16:15:14.025Z,5.67
2018-08-20T16:20:19.401Z,5.43
2018-08-20T16:22:48.453Z,5.50
2018-08-20T16:25:17.504Z,5.70
2018-08-20T16:27:58.987Z,5.63
2018-08-20T16:30:29.529Z,5.63
2018-08-20T16:33:12.873Z,4.87
2018-08-20T16:35:54.490Z,5.87
2018-08-20T16:38:26.086Z,5.80
2018-08-20T16:41:09.920Z,5.90
2018-08-20T16:43:39.621Z,5.65
2018-08-20T16:48:44.540Z,5.82
2018-08-20T16:51:13.598Z,7.20
2018-08-20T16:53:42.734Z,6.10
2018-08-20T16:58:48.844Z,5.50
2018-08-20T17:01:26.250Z,5.93
2018-08-20T17:03:56.639Z,6.07
2018-08-20T17:06:25.887Z,7.50
2018-08-20T17:11:30.717Z,6.47
2018-08-20T17:13:59.820Z,5.57
2018-08-20T17:16:28.972Z,5.53
2018-08-20T17:18:58.000Z,5.93
2018-08-20T17:21:27.073Z,5.00
2018-08-20T17:26:31.982Z,5.72
2018-08-20T17:29:01.263Z,5.68
2018-08-20T17:31:30.398Z,11.93
2018-08-20T17:36:35.233Z,6.60
2018-08-20T17:39:04.297Z,6.25
2018-08-20T17:41:33.341Z,5.57
2018-08-20T17:44:02.506Z,5.90
2018-08-20T17:46:31.598Z,5.53
2018-08-20T17:49:01.177Z,5.97
2018-08-20T17:51:30.318Z,5.00
2018-08-20T17:53:59.353Z,6.07
2018-08-20T17:56:28.400Z,5.80
2018-08-20T18:04:10.538Z,5.80
2018-08-20T18:06:41.593Z,6.10
2018-08-20T18:09:10.636Z,5.77
2018-08-20T18:14:15.471Z,6.37
2018-08-20T18:16:44.505Z,5.63
2018-08-20T18:19:14.549Z,5.50
2018-08-20T18:24:19.443Z,6.50
2018-08-20T18:26:48.504Z,6.20
2018-08-20T18:31:53.412Z,9.13
2018-08-20T18:34:22.453Z,8.10
2018-08-20T18:39:27.350Z,6.90
2018-08-20T18:41:56.403Z,7.12
2018-08-20T18:44:25.461Z,8.20
2018-08-20T18:46:54.534Z,7.20
2018-08-20T18:49:23.673Z,7.00
2018-08-20T18:51:52.706Z,7.47
2018-08-20T18:56:57.591Z,8.65
2018-08-20T19:02:02.342Z,7.03
2018-08-20T19:04:31.389Z,6.83
2018-08-20T19:07:00.589Z,7.40
2018-08-20T19:09:31.541Z,6.40
2018-08-20T19:12:00.597Z,6.93
2018-08-20T19:14:29.731Z,6.37
2018-08-20T19:16:58.830Z,6.97
2018-08-20T19:22:03.633Z,8.65
2018-08-20T19:24:32.670Z,8.23
2018-08-20T19:29:37.472Z,7.22
2018-08-20T19:32:06.560Z,12.25
2018-08-20T19:37:11.422Z,8.00
2018-08-20T19:39:40.510Z,7.80
2018-08-20T19:42:09.556Z,7.60
2018-08-20T19:44:38.624Z,6.27
2018-08-20T19:49:43.373Z,6.55
2018-08-20T19:52:12.461Z,6.30
2018-08-20T19:54:42.457Z,6.40
2018-08-20T19:57:11.501Z,6.47
2018-08-20T19:59:40.554Z,6.73
2018-08-20T20:04:46.589Z,7.05
2018-08-20T20:07:15.663Z,6.10
2018-08-20T20:09:44.739Z,6.80
2018-08-20T20:12:13.836Z,7.43
2018-08-20T20:14:42.832Z,6.63
2018-08-20T20:17:11.893Z,6.60
2018-08-20T20:19:40.961Z,6.90
2018-08-20T20:22:11.994Z,5.80
2018-08-20T20:24:43.001Z,6.30
2018-08-20T20:27:14.341Z,6.20
2018-08-20T20:32:24.266Z,6.57
2018-08-20T20:34:55.065Z,5.83
2018-08-20T20:37:26.197Z,6.00
2018-08-20T20:39:55.918Z,6.30
2018-08-20T20:42:26.606Z,6.17
2018-08-20T20:44:57.055Z,6.60
2018-08-20T20:47:27.663Z,5.90
2018-08-20T20:52:34.055Z,6.90
2018-08-20T20:55:04.987Z,7.23
2018-08-20T21:02:48.001Z,7.30
2018-08-20T21:05:18.947Z,7.80
2018-08-20T21:07:50.302Z,7.67
2018-08-20T21:10:20.795Z,11.27
2018-08-20T21:12:50.568Z,10.93
2018-08-20T21:15:20.190Z,11.37
2018-08-20T21:17:50.231Z,8.50
2018-08-20T21:20:19.829Z,8.47
2018-08-20T21:22:49.476Z,8.37
2018-08-20T21:25:20.199Z,9.17
2018-08-20T21:27:49.954Z,10.63
2018-08-20T21:30:19.208Z,12.70
2018-08-20T21:32:48.459Z,11.40
2018-08-20T21:35:18.377Z,9.30
2018-08-20T21:37:49.932Z,9.17
2018-08-20T21:40:19.446Z,7.60
2018-08-20T21:42:50.698Z,8.03
2018-08-20T21:45:21.148Z,7.13
2018-08-20T21:47:52.778Z,7.40
2018-08-20T21:50:21.901Z,6.97
2018-08-20T21:52:50.944Z,7.97
2018-08-20T21:55:20.038Z,7.20
2018-08-20T21:57:50.200Z,6.90
2018-08-20T22:00:19.302Z,7.90
2018-08-20T22:08:01.974Z,8.27
2018-08-20T22:10:31.040Z,7.20
2018-08-20T22:13:00.077Z,6.67
2018-08-20T22:15:29.162Z,8.35
2018-08-20T22:20:33.938Z,7.90
2018-08-20T22:25:38.780Z,8.68
2018-08-20T22:28:07.828Z,7.83
2018-08-20T22:30:36.888Z,8.23
2018-08-20T22:33:06.025Z,8.30
2018-08-20T22:35:35.253Z,7.40
2018-08-20T22:40:40.037Z,9.00
2018-08-20T22:43:10.029Z,8.30
2018-08-20T22:45:39.256Z,8.53
2018-08-20T22:48:08.324Z,7.80
2018-08-20T22:50:37.405Z,7.63
2018-08-20T22:53:06.485Z,7.87
2018-08-20T22:55:35.551Z,7.70
2018-08-20T22:58:05.551Z,7.70
2018-08-20T23:00:34.616Z,7.30
2018-08-20T23:03:03.704Z,8.27
2018-08-20T23:05:32.756Z,7.70
2018-08-20T23:08:01.818Z,7.30
2018-08-20T23:10:30.887Z,7.60
2018-08-20T23:12:59.913Z,7.33
2018-08-20T23:15:28.958Z,8.50
2018-08-20T23:17:59.914Z,8.15
2018-08-20T23:20:28.953Z,8.70
2018-08-20T23:22:58.107Z,7.27
2018-08-20T23:25:27.140Z,8.33
2018-08-20T23:27:56.244Z,8.13
2018-08-20T23:30:25.286Z,8.70
2018-08-20T23:32:54.353Z,8.63
2018-08-20T23:35:23.425Z,7.87
2018-08-20T23:37:52.612Z,8.73
2018-08-20T23:40:21.677Z,8.63
2018-08-20T23:45:26.490Z,9.13
2018-08-20T23:47:55.679Z,8.50
2018-08-20T23:50:24.738Z,9.23
2018-08-20T23:52:53.893Z,8.43
2018-08-20T23:55:22.917Z,8.60
2018-08-20T23:57:53.031Z,8.77
